Ninghai — 9V5442 — position and weather

sailwx.info

Track history (hours):
 
Tides and Currents Weather Stations Pressure Air Temp Water Temp Dewpoint Dewpoint Depression Visibility Wind Speed Wind Dir Waves Ship Positions

Ninghai

Last reported at 2018-Jan-23 02:54 UTC. Time now 2018-Jan-23 04:16 UTC.
Position S 37°51' E 153°14'.

Length 180 m; draft 9.9 m.

Type: Cargo ship. MMSI: 563019700.

Date/timePositionNaut miles runAvg speedWind from/ knotsBaromVisibWave heightAir tempDewpointWater temp
2018-Jan-23 02:54S 37°51' E 153°14'512.0
2018-Jan-23 02:30S 37°49' E 153°19'3511.1
2018-Jan-22 23:20S 37°37' E 154°01'411.8
2018-Jan-22 23:00S 37°35' E 154°06'611.6
2018-Jan-22 22:30S 37°33' E 154°12'611.5
2018-Jan-22 22:00S 37°31' E 154°19'611.5
2018-Jan-22 21:30S 37°29' E 154°26'611.1
2018-Jan-22 21:00S 37°27' E 154°32'611.2
2018-Jan-22 20:29S 37°25' E 154°39'1011.3
2018-Jan-22 19:36S 37°21' E 154°51'210.9
2018-Jan-22 19:27S 37°21' E 154°53'610.9
2018-Jan-22 18:55S 37°19' E 154°60'510.9
2018-Jan-22 18:28S 37°17' E 155°05'2210.8
2018-Jan-22 16:27S 37°09' E 155°31'  
Track history (hours):
 
Tides and Currents Weather Stations Pressure Air Temp Water Temp Dewpoint Dewpoint Depression Visibility Wind Speed Wind Dir Waves Ship Positions

Ninghai

Last reported at 2018-Jan-23 02:54 UTC. Time now 2018-Jan-23 04:16 UTC.
Position S 37°51' E 153°14'.

Length 180 m; draft 9.9 m.

Type: Cargo ship. MMSI: 563019700.

Date/timePositionNaut miles runAvg speedWind from/ knotsBaromVisibWave heightAir tempDewpointWater temp
2018-Jan-23 02:54S 37°51' E 153°14'512.0
2018-Jan-23 02:30S 37°49' E 153°19'3511.1
2018-Jan-22 23:20S 37°37' E 154°01'411.8
2018-Jan-22 23:00S 37°35' E 154°06'611.6
2018-Jan-22 22:30S 37°33' E 154°12'611.5
2018-Jan-22 22:00S 37°31' E 154°19'611.5
2018-Jan-22 21:30S 37°29' E 154°26'611.1
2018-Jan-22 21:00S 37°27' E 154°32'611.2
2018-Jan-22 20:29S 37°25' E 154°39'1011.3
2018-Jan-22 19:36S 37°21' E 154°51'210.9
2018-Jan-22 19:27S 37°21' E 154°53'610.9
2018-Jan-22 18:55S 37°19' E 154°60'510.9
2018-Jan-22 18:28S 37°17' E 155°05'2210.8
2018-Jan-22 16:27S 37°09' E 155°31'  

Dump ship's entire track history